Time;durP1;ratioP1;P1;durP2;ratioP2;P2;SDS_P1;SDS_P2;PMS_P1;PMS_P2;Temp;Humidity;BMP_temperature;BMP_pressure;BME280_temperature;BME280_humidity;BME280_pressure;Samples;Min_cycle;Max_cycle;Signal;HPM_P1;HPM_P2
2021/05/18 05:07:32;;;;;;;2.13;1.92;;;;;;;19.50;61.21;94291.66;6225133;23;20091;-70
2021/05/18 05:09:57;;;;;;;2.53;1.88;;;;;;;21.61;54.97;94297.50;6243685;23;20007;-72
2021/05/18 05:14:51;;;;;;;2.35;2.17;;;;;;;19.38;61.75;94305.66;6222119;23;20458;-71
2021/05/18 05:17:16;;;;;;;2.10;2.00;;;;;;;19.78;59.73;94305.44;6193803;23;20030;-71
2021/05/18 05:19:42;;;;;;;2.08;1.88;;;;;;;18.48;64.08;94309.38;6206308;23;20008;-70
2021/05/18 05:22:07;;;;;;;2.72;2.20;;;;;;;16.22;71.45;94314.44;6189574;23;20419;-71
2021/05/18 05:24:33;;;;;;;2.40;2.10;;;;;;;17.72;65.88;94316.53;6180953;23;20026;-71
2021/05/18 05:26:59;;;;;;;2.42;2.22;;;;;;;19.83;59.26;94309.97;6190047;23;20054;-70
2021/05/18 05:29:24;;;;;;;2.60;1.75;;;;;;;19.70;60.03;94321.63;6165121;23;20035;-71
2021/05/18 05:31:51;;;;;;;1.92;1.80;;;;;;;20.23;57.63;94323.59;6158835;23;20362;-70
2021/05/18 05:34:18;;;;;;;1.83;1.50;;;;;;;16.20;70.09;94340.81;6157718;23;20000;-71
2021/05/18 05:36:43;;;;;;;2.17;1.98;;;;;;;15.11;74.82;94348.53;6185076;23;20031;-72
2021/05/18 05:39:13;;;;;;;2.30;1.70;;;;;;;14.93;75.42;94350.28;6208371;23;19996;-70
2021/05/18 05:41:39;;;;;;;3.22;2.20;;;;;;;16.24;73.34;94349.00;6185412;23;20055;-71
2021/05/18 05:44:05;;;;;;;2.13;2.03;;;;;;;21.17;56.16;94341.72;6182864;23;20005;-71
2021/05/18 05:46:31;;;;;;;1.85;1.50;;;;;;;24.30;49.20;94347.88;6209679;23;20445;-71
2021/05/18 05:48:57;;;;;;;1.85;1.50;;;;;;;24.02;47.63;94349.22;6183777;23;20005;-71
2021/05/18 05:51:26;;;;;;;2.30;1.30;;;;;;;23.01;49.85;94351.94;6133671;23;20028;-71
2021/05/18 05:53:53;;;;;;;1.35;1.20;;;;;;;24.24;45.38;94354.25;6158813;23;20082;-72
2021/05/18 05:56:18;;;;;;;2.53;1.05;;;;;;;24.82;46.30;94353.47;6157739;23;20054;-71
2021/05/18 05:58:45;;;;;;;1.02;0.90;;;;;;;25.08;43.72;94352.25;6184209;23;20350;-71
2021/05/18 06:01:11;;;;;;;1.73;0.70;;;;;;;23.73;46.16;94346.38;6176521;23;20415;-71
2021/05/18 06:03:37;;;;;;;1.00;0.90;;;;;;;21.16;52.41;94355.94;6178974;23;20013;-71
2021/05/18 06:06:02;;;;;;;1.73;1.10;;;;;;;24.94;44.40;94346.00;6178056;23;20055;-72
2021/05/18 06:08:28;;;;;;;1.27;1.02;;;;;;;23.96;46.15;94355.59;6178420;23;20009;-71
2021/05/18 06:11:03;;;;;;;1.15;0.80;;;;;;;25.85;41.49;94347.16;6129691;23;20020;-71
2021/05/18 06:48:25;;;;;;;1.23;0.50;;;;;;;26.99;37.83;94382.56;6171712;23;20008;-73
2021/05/18 06:50:51;;;;;;;0.73;0.50;;;;;;;27.04;36.98;94383.25;6153642;23;20005;-74
2021/05/18 06:53:16;;;;;;;1.85;0.47;;;;;;;25.25;40.75;94378.41;6152294;23;20059;-73
2021/05/18 06:55:42;;;;;;;1.75;0.40;;;;;;;27.77;36.41;94380.84;6177526;23;20041;-71
2021/05/18 07:00:36;;;;;;;1.60;0.40;;;;;;;28.40;35.58;94382.16;6152369;23;20430;-71
2021/05/18 07:03:02;;;;;;;1.10;0.40;;;;;;;23.09;44.99;94386.53;6179027;23;20009;-73
2021/05/18 07:08:30;;;;;;;1.55;0.35;;;;;;;20.02;52.37;94400.66;6178356;23;20009;-70
2021/05/18 07:10:51;;;;;;;2.17;0.38;;;;;;;20.55;50.12;94391.38;6158074;23;20055;-70
2021/05/18 07:13:16;;;;;;;0.85;0.40;;;;;;;19.57;53.18;94402.63;6177042;23;20005;-70
2021/05/18 07:15:42;;;;;;;0.65;0.40;;;;;;;19.40;55.40;94402.63;6176380;23;20012;-71
2021/05/18 07:18:08;;;;;;;1.08;0.30;;;;;;;18.82;51.86;94401.09;6178650;23;20001;-70
2021/05/18 07:20:33;;;;;;;6.28;0.30;;;;;;;20.14;52.39;94397.91;6178666;23;20032;-70
2021/05/18 07:23:03;;;;;;;0.30;0.20;;;;;;;20.47;50.70;94393.41;6176627;23;20403;-72
2021/05/18 07:25:28;;;;;;;;;;;;;;;20.55;50.21;94396.63;6154413;23;20005;-70
2021/05/18 07:27:53;;;;;;;1.53;0.30;;;;;;;20.40;51.35;94405.94;6177163;23;19915;-70
2021/05/18 07:30:19;;;;;;;1.65;0.50;;;;;;;20.01;52.00;94412.22;6176884;23;20256;-70
2021/05/18 07:32:45;;;;;;;1.27;0.40;;;;;;;20.08;50.22;94414.69;6177913;23;20447;-70
2021/05/18 07:35:11;;;;;;;0.38;0.30;;;;;;;20.15;51.68;94413.47;6175683;23;20001;-71
2021/05/18 07:37:37;;;;;;;2.08;0.50;;;;;;;20.57;51.36;94412.97;6179642;23;20001;-71
2021/05/18 07:40:03;;;;;;;2.17;0.38;;;;;;;19.88;54.06;94415.19;6151845;23;20016;-70
2021/05/18 07:42:29;;;;;;;1.88;0.40;;;;;;;20.05;54.03;94418.59;6153199;23;20430;-70
2021/05/18 07:44:54;;;;;;;1.55;0.20;;;;;;;20.14;52.57;94426.84;6178394;23;19997;-70
2021/05/18 07:47:22;;;;;;;0.60;0.40;;;;;;;20.50;48.55;94423.69;6177973;23;20600;-71
2021/05/18 07:49:49;;;;;;;0.15;0.15;;;;;;;20.30;47.77;94436.56;6177817;23;20487;-71
2021/05/18 08:05:54;;;;;;;1.23;0.30;;;;;;;20.67;51.50;94429.69;6177988;23;20011;-70
2021/05/18 08:08:20;;;;;;;2.00;0.20;;;;;;;20.10;52.69;94425.75;6128872;23;20005;-70
2021/05/18 08:10:58;;;;;;;0.30;0.30;;;;;;;19.89;52.75;94432.56;6102780;23;20414;-71
2021/05/18 08:13:24;;;;;;;0.25;0.17;;;;;;;20.05;50.44;94436.19;6155847;23;20001;-71
2021/05/18 08:19:06;;;;;;;12.73;0.70;;;;;;;18.98;54.09;94438.91;6108621;23;20012;-71
2021/05/18 09:37:32;;;;;;;0.20;0.20;;;;;;;19.62;51.33;94427.16;6159845;23;20043;-72
2021/05/18 10:35:42;;;;;;;1.15;0.30;;;;;;;19.61;50.89;94409.00;6183420;23;20008;-72
2021/05/18 10:38:10;;;;;;;0.65;0.30;;;;;;;19.59;49.11;94405.81;6184091;23;20015;-72
2021/05/18 10:40:39;;;;;;;0.22;0.20;;;;;;;19.62;49.42;94400.88;6183258;23;20001;-71
2021/05/18 10:43:11;;;;;;;1.05;0.30;;;;;;;19.53;51.19;94412.81;6183907;23;20008;-71
2021/05/18 10:45:52;;;;;;;5.43;0.30;;;;;;;19.63;49.03;94420.06;6208383;23;20078;-72
2021/05/18 10:48:44;;;;;;;0.32;0.20;;;;;;;19.39;49.26;94412.31;6183980;23;20434;-72
2021/05/18 10:51:36;;;;;;;0.75;0.30;;;;;;;19.36;49.71;94414.63;6147138;23;20034;-72
2021/05/18 10:54:17;;;;;;;1.35;0.22;;;;;;;19.60;50.30;94421.34;6183920;23;20000;-73
2021/05/18 10:57:01;;;;;;;0.22;0.20;;;;;;;19.57;49.58;94415.78;6162110;23;20004;-73
2021/05/18 10:59:39;;;;;;;1.10;0.30;;;;;;;19.67;50.04;94421.19;6209099;23;20072;-72
2021/05/18 11:02:11;;;;;;;0.73;0.20;;;;;;;19.66;48.65;94414.31;6177992;23;20039;-73
2021/05/18 11:05:13;;;;;;;1.90;0.20;;;;;;;19.58;49.43;94425.25;6178467;23;20017;-72
2021/05/18 11:07:42;;;;;;;0.45;0.20;;;;;;;19.55;48.23;94426.53;6095459;23;21016;-73
2021/05/18 11:10:13;;;;;;;3.40;0.30;;;;;;;19.49;47.96;94413.56;6133334;23;20009;-72
2021/05/18 11:12:39;;;;;;;0.70;0.20;;;;;;;19.82;49.85;94434.53;6153255;23;20005;-72
2021/05/18 11:15:07;;;;;;;1.42;0.20;;;;;;;19.60;48.77;94428.44;6152080;23;20497;-72
2021/05/18 11:17:33;;;;;;;0.63;0.28;;;;;;;19.80;49.08;94428.75;6154225;23;20044;-73
2021/05/18 11:20:47;;;;;;;0.95;0.30;;;;;;;20.25;51.39;94436.47;6175394;23;20008;-72
2021/05/18 11:23:21;;;;;;;1.27;0.20;;;;;;;20.13;47.10;94431.31;6169122;23;20023;-72
2021/05/18 11:29:08;;;;;;;2.30;0.10;;;;;;;19.89;46.46;94424.66;6164794;23;20104;-72
2021/05/18 11:31:34;;;;;;;3.72;0.30;;;;;;;19.77;47.68;94434.47;6178220;23;20037;-74
2021/05/18 11:34:04;;;;;;;1.45;0.20;;;;;;;19.76;47.59;94427.63;6126529;23;20358;-74
2021/05/18 11:36:35;;;;;;;0.20;0.20;;;;;;;20.17;47.84;94427.16;6177703;23;20008;-76
2021/05/18 11:39:07;;;;;;;4.32;0.30;;;;;;;19.94;47.82;94430.00;6167542;23;20096;-74
2021/05/18 11:41:38;;;;;;;0.45;0.22;;;;;;;20.00;46.77;94434.31;6170678;23;20036;-75
2021/05/18 11:44:08;;;;;;;1.50;0.20;;;;;;;19.69;46.95;94430.41;6167069;23;20458;-74
2021/05/18 11:46:35;;;;;;;0.22;0.10;;;;;;;19.86;46.81;94428.59;6156902;23;20004;-75
2021/05/18 11:49:04;;;;;;;2.28;0.20;;;;;;;19.89;46.93;94435.19;6176862;23;20044;-73
2021/05/18 11:51:46;;;;;;;0.85;0.20;;;;;;;19.90;44.35;94436.78;6152963;23;20068;-74
2021/05/18 11:54:13;;;;;;;1.15;0.13;;;;;;;19.94;45.37;94416.84;6175876;23;20067;-75
2021/05/18 11:56:39;;;;;;;0.65;0.20;;;;;;;20.11;48.93;94422.88;6153708;23;20009;-74
2021/05/18 11:59:07;;;;;;;3.53;0.20;;;;;;;20.05;46.25;94425.69;6176080;23;20013;-77
2021/05/18 12:01:47;;;;;;;0.20;0.20;;;;;;;20.25;46.58;94437.28;6152909;23;20068;-75
2021/05/18 12:04:14;;;;;;;1.42;0.20;;;;;;;20.50;45.08;94435.00;6176213;23;20055;-74
2021/05/18 12:06:52;;;;;;;2.58;0.50;;;;;;;20.32;45.87;94427.41;6177144;23;20007;-76
2021/05/18 12:09:17;;;;;;;1.75;0.20;;;;;;;20.09;46.30;94435.47;6177058;23;20159;-74
2021/05/18 12:11:43;;;;;;;0.55;0.17;;;;;;;20.31;47.52;94433.72;6151888;23;20394;-73
2021/05/18 12:14:09;;;;;;;0.60;0.22;;;;;;;19.73;46.98;94434.16;6177508;23;20015;-74
2021/05/18 12:16:39;;;;;;;1.67;0.40;;;;;;;19.84;47.14;94425.38;6175674;23;20005;-74
2021/05/18 12:19:05;;;;;;;0.10;0.10;;;;;;;20.02;44.09;94426.97;6153111;23;20332;-77
2021/05/18 12:21:32;;;;;;;1.00;0.35;;;;;;;20.23;45.55;94425.38;6151934;23;20016;-75
2021/05/18 12:24:26;;;;;;;0.65;0.30;;;;;;;20.43;45.59;94415.97;6153531;23;20024;-74
2021/05/18 12:27:02;;;;;;;1.95;0.20;;;;;;;20.59;46.19;94432.72;6155475;23;20001;-74
2021/05/18 12:29:37;;;;;;;1.05;0.22;;;;;;;20.39;44.81;94414.84;6178048;23;20501;-75
2021/05/18 12:32:22;;;;;;;2.13;0.25;;;;;;;20.33;43.04;94418.47;6177571;23;20009;-75
2021/05/18 12:34:51;;;;;;;1.48;0.30;;;;;;;21.02;44.19;94416.91;6178953;23;20005;-74
2021/05/18 12:37:17;;;;;;;0.50;0.25;;;;;;;21.47;45.68;94411.28;6177034;23;20005;-71
2021/05/18 12:39:44;;;;;;;1.67;0.20;;;;;;;21.25;43.81;94409.78;6179848;23;20064;-75
2021/05/18 12:42:15;;;;;;;0.60;0.20;;;;;;;21.70;45.69;94412.78;6178252;23;20076;-73
2021/05/18 12:44:59;;;;;;;2.90;0.10;;;;;;;20.93;43.09;94409.69;6155618;23;20001;-72
2021/05/18 12:47:32;;;;;;;3.10;0.20;;;;;;;20.99;45.05;94403.44;6178657;23;20388;-73
2021/05/18 12:49:58;;;;;;;0.65;0.20;;;;;;;20.60;43.72;94399.31;6155041;23;20413;-75
2021/05/18 12:52:23;;;;;;;1.10;0.13;;;;;;;20.78;44.00;94404.25;6180589;23;20080;-72
2021/05/18 12:54:55;;;;;;;0.85;0.25;;;;;;;21.07;43.93;94402.19;6178790;23;20830;-74
2021/05/18 12:57:25;;;;;;;0.20;0.20;;;;;;;19.85;46.21;94411.22;6155126;23;20005;-76
2021/05/18 13:00:08;;;;;;;4.50;0.38;;;;;;;19.86;45.64;94412.00;6178136;23;20008;-76
2021/05/18 13:02:45;;;;;;;1.75;0.20;;;;;;;19.37;46.05;94405.69;6184665;23;20021;-76
2021/05/18 13:05:17;;;;;;;0.43;0.30;;;;;;;19.51;46.29;94406.22;6160342;23;20079;-75
2021/05/18 13:07:44;;;;;;;1.17;0.20;;;;;;;19.56;45.63;94385.25;6159137;23;20079;-77
2021/05/18 13:10:27;;;;;;;0.57;0.20;;;;;;;20.18;44.19;94405.09;6184484;23;20062;-72
2021/05/18 13:13:02;;;;;;;0.82;0.13;;;;;;;19.58;45.05;94401.59;6160123;23;20008;-73
2021/05/18 13:15:28;;;;;;;1.27;0.28;;;;;;;20.11;45.50;94393.94;6184488;23;20447;-71
2021/05/18 13:17:58;;;;;;;1.55;0.20;;;;;;;20.18;44.44;94389.31;6159019;23;20011;-71
2021/05/18 13:20:25;;;;;;;0.75;0.20;;;;;;;20.56;45.23;94374.53;6158678;23;20009;-73
2021/05/18 13:22:58;;;;;;;1.33;0.20;;;;;;;20.38;46.03;94394.88;6160106;23;20076;-74
2021/05/18 13:28:07;;;;;;;1.67;0.20;;;;;;;20.06;44.66;94401.78;6167571;23;20059;-74
2021/05/18 13:30:33;;;;;;;1.10;0.17;;;;;;;19.76;43.88;94385.56;6208827;23;20036;-72
2021/05/18 13:32:58;;;;;;;0.20;0.10;;;;;;;20.00;45.82;94390.38;6158837;23;20004;-73
2021/05/18 13:35:26;;;;;;;0.98;0.20;;;;;;;20.04;44.42;94387.25;6158414;23;20004;-73
2021/05/18 13:37:51;;;;;;;0.55;0.15;;;;;;;19.89;44.53;94377.34;6134336;23;19992;-73
2021/05/18 13:40:17;;;;;;;2.10;0.10;;;;;;;19.76;43.50;94390.84;6158055;23;20015;-73
2021/05/18 13:42:43;;;;;;;0.15;0.15;;;;;;;19.90;45.86;94392.91;6155531;23;20015;-73
2021/05/18 13:45:09;;;;;;;2.10;0.30;;;;;;;19.73;43.93;94392.13;6158124;23;20004;-74
2021/05/18 13:47:34;;;;;;;1.05;0.20;;;;;;;19.84;44.47;94401.72;6182779;23;20404;-73
2021/05/18 13:50:00;;;;;;;0.35;0.10;;;;;;;19.71;43.72;94390.78;6184177;23;20099;-73
2021/05/18 13:52:25;;;;;;;4.30;0.30;;;;;;;19.92;43.40;94392.63;6157785;23;20007;-73
2021/05/18 13:54:55;;;;;;;0.20;0.20;;;;;;;19.78;44.62;94401.88;6184088;23;20481;-73
2021/05/18 13:57:21;;;;;;;1.85;0.20;;;;;;;19.80;44.57;94399.84;6159955;23;20537;-73
2021/05/18 13:59:49;;;;;;;1.42;0.20;;;;;;;19.74;43.21;94395.53;6157323;23;20001;-72
2021/05/18 14:02:15;;;;;;;0.30;0.10;;;;;;;19.68;44.23;94405.16;6160115;23;20653;-73
2021/05/18 14:04:40;;;;;;;0.57;0.20;;;;;;;19.64;44.65;94401.44;6209063;23;20008;-72
2021/05/18 14:08:09;;;;;;;0.30;0.20;;;;;;;19.71;44.57;94407.34;6183481;23;20009;-74
2021/05/18 14:10:35;;;;;;;3.33;0.70;;;;;;;19.75;44.84;94403.16;6210604;23;20012;-73
2021/05/18 14:13:00;;;;;;;1.95;0.20;;;;;;;19.79;44.12;94399.03;6157348;23;20015;-73
2021/05/18 14:15:26;;;;;;;0.77;0.20;;;;;;;19.68;45.12;94399.91;6158788;23;20027;-73
2021/05/18 14:17:51;;;;;;;0.80;0.20;;;;;;;19.58;44.99;94410.28;6156313;23;20008;-74
2021/05/18 14:20:17;;;;;;;0.60;0.20;;;;;;;19.34;43.87;94396.47;6157482;23;20004;-74
2021/05/18 14:22:42;;;;;;;4.13;0.30;;;;;;;19.44;44.52;94403.75;6156959;23;20091;-71
2021/05/18 14:25:08;;;;;;;0.43;0.30;;;;;;;19.44;46.23;94409.81;6134177;23;20008;-72
2021/05/18 14:27:35;;;;;;;1.90;0.20;;;;;;;19.40;44.56;94405.25;6210041;23;20035;-73
2021/05/18 14:30:01;;;;;;;2.17;0.20;;;;;;;19.45;45.06;94410.59;6156610;23;20040;-74
2021/05/18 14:32:26;;;;;;;1.75;0.10;;;;;;;19.38;44.46;94408.09;6181855;23;20351;-74
2021/05/18 14:34:52;;;;;;;0.95;0.20;;;;;;;19.43;44.42;94404.78;6131158;23;20001;-73
2021/05/18 14:37:19;;;;;;;2.20;0.30;;;;;;;19.50;45.60;94412.50;6133777;23;20004;-72
2021/05/18 14:40:04;;;;;;;2.38;0.20;;;;;;;19.55;45.66;94409.97;6181418;23;20495;-74
2021/05/18 14:45:15;;;;;;;2.42;0.28;;;;;;;19.57;44.77;94413.94;6187044;23;20016;-74
2021/05/18 14:55:52;;;;;;;0.90;0.20;;;;;;;19.41;43.65;94405.03;6164845;23;20390;-73
2021/05/18 14:58:18;;;;;;;1.25;0.25;;;;;;;19.40;44.31;94406.06;6157585;23;20008;-72
2021/05/18 15:00:43;;;;;;;0.30;0.20;;;;;;;19.45;44.97;94408.78;6206280;23;20000;-73
2021/05/18 15:03:09;;;;;;;2.67;0.20;;;;;;;19.37;43.62;94406.50;6183158;23;20430;-73
2021/05/18 15:05:38;;;;;;;0.10;0.10;;;;;;;19.25;43.23;94400.53;6154906;23;20051;-73
2021/05/18 15:08:04;;;;;;;5.57;0.43;;;;;;;19.27;44.94;94410.78;6181096;23;20036;-73
2021/05/18 15:10:30;;;;;;;0.63;0.20;;;;;;;19.38;45.15;94405.47;6180696;23;20087;-74
2021/05/18 15:12:55;;;;;;;0.10;0.10;;;;;;;19.35;46.41;94400.69;6182351;23;20351;-74
2021/05/18 15:15:21;;;;;;;0.45;0.20;;;;;;;19.29;45.14;94396.41;6157453;23;20005;-73
2021/05/18 15:17:47;;;;;;;1.60;0.28;;;;;;;19.16;44.51;94401.97;6181792;23;20004;-74
2021/05/18 15:20:13;;;;;;;4.30;0.20;;;;;;;19.07;43.62;94403.34;6210181;23;20039;-73
2021/05/18 15:22:39;;;;;;;1.35;0.20;;;;;;;19.01;43.61;94409.53;6131429;23;20005;-73
2021/05/18 15:25:08;;;;;;;2.45;0.10;;;;;;;18.90;44.23;94379.72;6181610;23;20032;-73
2021/05/18 15:27:33;;;;;;;0.10;0.10;;;;;;;19.02;43.27;94400.66;6157857;23;20011;-74
2021/05/18 15:29:59;;;;;;;0.65;0.25;;;;;;;18.99;44.06;94411.63;6157805;23;20004;-76
2021/05/18 15:32:24;;;;;;;2.47;0.20;;;;;;;18.95;45.25;94407.88;6182990;23;20005;-75
2021/05/18 15:34:50;;;;;;;1.20;0.17;;;;;;;18.95;43.97;94407.88;6207398;23;20007;-76
2021/05/18 15:37:16;;;;;;;1.42;0.20;;;;;;;18.90;44.06;94407.78;6183281;23;20008;-78
2021/05/18 15:39:42;;;;;;;0.30;0.10;;;;;;;18.95;45.91;94402.63;6156848;23;20166;-75
2021/05/18 15:42:08;;;;;;;1.42;0.30;;;;;;;19.03;45.12;94402.25;6134396;23;20632;-76
2021/05/18 15:44:33;;;;;;;1.52;0.20;;;;;;;19.00;46.46;94413.22;6156696;23;20079;-74
2021/05/18 15:46:59;;;;;;;0.55;0.20;;;;;;;18.99;45.21;94406.38;6158507;23;20098;-76
2021/05/18 15:49:27;;;;;;;0.75;0.30;;;;;;;19.03;44.84;94410.13;6157596;23;20005;-78
2021/05/18 15:51:53;;;;;;;0.80;0.20;;;;;;;19.09;44.43;94406.56;6182570;23;20493;-76
2021/05/18 15:54:18;;;;;;;0.30;0.20;;;;;;;19.09;45.40;94406.56;6182840;23;20001;-77
2021/05/18 15:56:44;;;;;;;0.90;0.15;;;;;;;19.01;45.37;94401.66;6156545;23;20496;-78
2021/05/18 15:59:09;;;;;;;1.65;0.20;;;;;;;18.95;46.30;94415.75;6158379;23;20447;-77
2021/05/18 16:01:35;;;;;;;0.40;0.20;;;;;;;18.77;46.58;94410.69;6176649;23;20017;-77
2021/05/18 16:04:00;;;;;;;2.83;0.20;;;;;;;18.52;45.43;94411.03;6177947;23;20009;-78
2021/05/18 16:06:29;;;;;;;0.10;0.10;;;;;;;18.47;45.02;94407.44;6152388;23;20005;-78
2021/05/18 16:11:19;;;;;;;0.20;0.20;;;;;;;18.25;47.75;94410.69;6179874;23;20009;-78
2021/05/18 16:13:45;;;;;;;0.30;0.30;;;;;;;18.28;46.47;94415.47;6141133;23;20001;-76
2021/05/18 16:16:12;;;;;;;2.92;0.20;;;;;;;18.28;46.39;94406.81;6178079;23;20063;-77
2021/05/18 16:18:41;;;;;;;1.45;0.20;;;;;;;18.15;46.11;94402.63;6151404;23;20012;-77
2021/05/18 16:21:07;;;;;;;1.73;0.20;;;;;;;18.11;46.65;94404.09;6152907;23;20481;-78
2021/05/18 16:23:35;;;;;;;1.17;0.20;;;;;;;18.05;46.74;94405.03;6151696;23;20104;-77
2021/05/18 16:26:00;;;;;;;0.30;0.20;;;;;;;17.97;47.60;94389.66;6177652;23;20427;-78
2021/05/18 16:28:26;;;;;;;0.22;0.15;;;;;;;17.84;48.68;94398.56;6151589;23;20005;-76
2021/05/18 16:30:51;;;;;;;0.25;0.20;;;;;;;17.83;48.09;94389.09;6126020;23;20597;-76
2021/05/18 16:33:17;;;;;;;0.45;0.20;;;;;;;17.77;48.36;94397.88;6128226;23;20005;-77
2021/05/18 16:35:43;;;;;;;0.70;0.20;;;;;;;17.76;48.83;94400.72;6150626;23;20005;-77
2021/05/18 16:38:08;;;;;;;1.13;0.20;;;;;;;17.63;49.50;94395.69;6128116;23;20005;-76
2021/05/18 16:40:34;;;;;;;0.30;0.30;;;;;;;17.57;49.31;94409.69;6151185;23;20013;-76
2021/05/18 16:42:59;;;;;;;1.00;0.40;;;;;;;17.54;49.47;94399.66;6128064;23;20439;-77
2021/05/18 16:45:26;;;;;;;2.03;0.20;;;;;;;17.37;51.14;94397.69;6152365;23;20005;-78
2021/05/18 16:47:52;;;;;;;1.50;0.30;;;;;;;17.28;51.70;94396.44;6152176;23;20488;-78
2021/05/18 16:50:17;;;;;;;1.08;0.22;;;;;;;17.16;51.77;94400.88;6152169;23;20038;-77
2021/05/18 16:52:43;;;;;;;0.80;0.10;;;;;;;17.11;52.37;94392.91;6126910;23;20192;-77
2021/05/18 16:55:09;;;;;;;1.55;0.20;;;;;;;16.98;52.42;94395.72;6128170;23;20005;-78
2021/05/18 16:57:35;;;;;;;1.80;0.40;;;;;;;16.90;51.01;94397.81;6150846;23;20016;-78
2021/05/18 17:00:00;;;;;;;0.40;0.22;;;;;;;16.82;51.98;94398.97;6151905;23;20025;-77
2021/05/18 17:02:26;;;;;;;1.35;0.25;;;;;;;16.66;52.50;94395.13;6151498;23;20028;-77
2021/05/18 17:04:51;;;;;;;2.63;0.28;;;;;;;16.53;52.67;94395.28;6178223;23;20012;-77
2021/05/18 17:07:18;;;;;;;1.60;0.40;;;;;;;16.46;53.87;94394.56;6152567;23;20663;-78
2021/05/18 17:09:44;;;;;;;0.43;0.30;;;;;;;16.27;55.54;94393.00;6151645;23;20033;-77
2021/05/18 17:12:09;;;;;;;0.55;0.20;;;;;;;16.12;56.37;94405.63;6151546;23;20328;-77
2021/05/18 17:14:35;;;;;;;1.23;0.47;;;;;;;16.11;56.96;94404.03;6151381;23;20009;-77
2021/05/18 17:17:00;;;;;;;1.50;0.80;;;;;;;15.98;57.88;94407.59;6172827;23;20521;-77
2021/05/18 17:19:26;;;;;;;0.88;0.60;;;;;;;16.02;57.85;94405.34;6151125;23;20025;-77
2021/05/18 17:21:51;;;;;;;2.80;2.22;;;;;;;15.82;58.99;94403.75;6176632;23;20001;-74
2021/05/18 17:24:17;;;;;;;1.73;1.58;;;;;;;15.60;59.92;94409.59;6151440;23;20005;-74
2021/05/18 17:26:42;;;;;;;0.70;0.52;;;;;;;15.41;60.10;94415.75;6152387;23;20043;-75
2021/05/18 17:29:09;;;;;;;3.55;0.98;;;;;;;15.22;60.79;94414.84;6178906;23;20005;-75
2021/05/18 17:31:34;;;;;;;4.70;2.50;;;;;;;15.19;61.21;94420.50;6177576;23;20031;-75
2021/05/18 17:34:00;;;;;;;5.03;4.18;;;;;;;15.06;61.86;94424.00;6155043;23;20005;-74
2021/05/18 17:36:25;;;;;;;3.20;3.00;;;;;;;15.03;60.92;94418.41;6152941;23;20001;-75
2021/05/18 17:38:53;;;;;;;10.07;7.78;;;;;;;14.85;61.14;94424.34;6179687;23;20346;-74
2021/05/18 17:41:22;;;;;;;2.92;1.00;;;;;;;14.74;61.42;94425.00;6177933;23;20015;-74
2021/05/18 17:43:50;;;;;;;1.02;0.68;;;;;;;14.67;62.42;94438.06;6154972;23;20056;-74
2021/05/18 17:46:16;;;;;;;1.58;0.80;;;;;;;14.56;63.72;94443.16;6179206;23;20005;-75
2021/05/18 17:48:41;;;;;;;3.42;2.70;;;;;;;14.48;64.75;94435.59;6128838;23;20090;-75
2021/05/18 17:51:07;;;;;;;2.20;2.00;;;;;;;14.12;70.46;94449.91;6154608;23;20099;-75
2021/05/18 17:53:32;;;;;;;3.80;1.95;;;;;;;14.18;64.99;94438.66;6128493;23;20016;-75
2021/05/18 17:55:58;;;;;;;3.03;0.55;;;;;;;14.14;64.08;94431.44;6154974;23;20001;-75
2021/05/18 17:58:23;;;;;;;0.30;0.30;;;;;;;14.12;64.56;94438.69;6152897;23;20334;-76
2021/05/18 18:00:49;;;;;;;2.50;0.60;;;;;;;13.87;65.51;94412.50;6132205;23;20009;-74
2021/05/18 18:03:15;;;;;;;2.45;0.57;;;;;;;14.02;64.05;94436.50;6132964;23;20066;-77
2021/05/18 18:05:40;;;;;;;1.95;1.00;;;;;;;14.02;62.54;94431.28;6182166;23;20005;-76
2021/05/18 18:08:06;;;;;;;1.95;0.80;;;;;;;14.03;62.21;94435.47;6182905;23;20005;-77
2021/05/18 18:10:31;;;;;;;2.70;1.90;;;;;;;14.03;61.97;94432.88;6156172;23;20011;-76
2021/05/18 18:12:57;;;;;;;3.13;1.33;;;;;;;14.05;61.32;94435.28;6157214;23;20008;-76
2021/05/18 18:15:23;;;;;;;1.40;1.08;;;;;;;14.03;60.68;94434.72;6156574;23;20012;-76
2021/05/18 18:17:49;;;;;;;5.93;3.55;;;;;;;13.98;61.48;94429.28;6182728;23;20012;-77
2021/05/18 18:20:15;;;;;;;5.00;4.50;;;;;;;13.96;61.43;94439.13;6156279;23;20017;-77
2021/05/18 18:22:40;;;;;;;4.40;1.77;;;;;;;13.91;60.96;94444.94;6182509;23;20462;-76
2021/05/18 18:25:06;;;;;;;2.03;1.30;;;;;;;13.40;67.72;94449.19;6157583;23;20000;-74
2021/05/18 18:27:32;;;;;;;4.68;2.42;;;;;;;13.19;66.29;94452.78;6157110;23;20024;-76
2021/05/18 18:29:58;;;;;;;3.75;1.10;;;;;;;12.86;68.81;94452.72;6182113;23;20435;-76
2021/05/18 18:32:23;;;;;;;1.88;1.00;;;;;;;12.85;68.67;94458.09;6132136;23;20331;-76
2021/05/18 18:34:49;;;;;;;2.28;2.08;;;;;;;12.55;73.00;94468.78;6182413;23;20000;-76
2021/05/18 18:37:16;;;;;;;4.57;1.85;;;;;;;12.10;75.44;94472.78;6156834;23;20019;-76
2021/05/18 18:39:41;;;;;;;2.08;1.10;;;;;;;12.15;75.35;94480.81;6182142;23;20047;-76
2021/05/18 18:42:07;;;;;;;2.13;1.45;;;;;;;12.26;74.41;94483.88;6182463;23;20008;-76
2021/05/18 18:44:32;;;;;;;3.55;1.58;;;;;;;12.37;74.20;94491.09;6156861;23;20012;-76
2021/05/18 18:46:58;;;;;;;6.18;1.30;;;;;;;12.18;75.48;94494.41;6208993;23;20005;-76
2021/05/18 18:49:26;;;;;;;1.77;0.93;;;;;;;12.24;74.42;94491.03;6156069;23;20043;-76
2021/05/18 18:51:52;;;;;;;3.42;1.65;;;;;;;12.11;76.53;94499.53;6158820;23;20004;-76
2021/05/18 18:54:18;;;;;;;2.80;1.52;;;;;;;11.98;76.59;94502.06;6181384;23;20054;-76
2021/05/18 18:56:43;;;;;;;3.50;1.80;;;;;;;11.84;77.88;94501.19;6157274;23;20007;-76
2021/05/18 18:59:09;;;;;;;2.85;1.25;;;;;;;11.65;78.83;94507.78;6156508;23;20008;-75
2021/05/18 19:01:45;;;;;;;2.72;1.48;;;;;;;11.58;79.60;94501.78;6151839;23;20016;-76
2021/05/18 19:04:24;;;;;;;1.95;0.70;;;;;;;11.51;79.30;94498.31;6177424;23;20028;-75
2021/05/18 19:14:39;;;;;;;2.22;1.00;;;;;;;10.76;83.61;94516.13;6178754;23;20009;-76
2021/05/18 19:17:04;;;;;;;1.40;0.50;;;;;;;10.54;83.59;94512.69;6152256;23;20016;-74
2021/05/18 19:19:30;;;;;;;2.03;0.52;;;;;;;10.66;83.15;94522.59;6177705;23;20028;-74
2021/05/18 19:21:55;;;;;;;1.38;0.70;;;;;;;10.86;83.23;94524.41;6152187;23;20005;-76
2021/05/18 19:24:21;;;;;;;2.63;1.00;;;;;;;10.94;82.25;94524.31;6126401;23;20009;-76
2021/05/18 19:26:46;;;;;;;2.15;1.30;;;;;;;11.03;81.76;94527.59;6151883;23;20005;-76
2021/05/18 19:29:12;;;;;;;2.45;0.60;;;;;;;10.88;81.29;94534.59;6126380;23;20364;-73
2021/05/18 19:31:37;;;;;;;1.77;0.60;;;;;;;10.86;82.24;94536.56;6176644;23;20005;-75
2021/05/18 19:34:05;;;;;;;3.17;0.50;;;;;;;10.76;82.88;94534.25;6151749;23;20005;-75
2021/05/18 19:42:03;;;;;;;4.43;1.60;;;;;;;10.63;81.81;94541.88;6176294;23;20012;-76
2021/05/18 19:52:24;;;;;;;4.68;2.03;;;;;;;10.27;82.56;94547.00;6178763;23;20012;-75
2021/05/18 19:54:51;;;;;;;3.22;2.10;;;;;;;10.14;81.65;94546.84;6175613;23;20044;-74
2021/05/18 19:57:21;;;;;;;2.65;1.20;;;;;;;10.04;82.75;94554.81;6151704;23;20528;-73
2021/05/18 20:21:40;;;;;;;3.72;0.85;;;;;;;9.80;83.10;94557.63;6185398;23;20012;-74
2021/05/18 20:24:06;;;;;;;2.50;0.70;;;;;;;9.80;82.45;94547.28;6207704;23;20000;-74
2021/05/18 20:26:32;;;;;;;1.00;0.60;;;;;;;9.52;83.26;94556.59;6156608;23;20008;-74
2021/05/18 20:28:57;;;;;;;1.25;0.60;;;;;;;9.45;83.67;94553.09;6206449;23;20071;-74
2021/05/18 20:31:23;;;;;;;2.05;0.40;;;;;;;9.18;84.74;94549.25;6181541;23;20016;-74
2021/05/18 20:41:19;;;;;;;1.05;0.50;;;;;;;9.26;83.50;94554.34;6182483;23;20007;-75
2021/05/18 20:43:44;;;;;;;1.15;0.50;;;;;;;9.28;83.56;94562.72;6155987;23;20423;-75
2021/05/18 20:46:10;;;;;;;3.05;0.88;;;;;;;8.86;86.83;94572.72;6180622;23;20082;-75
2021/05/18 20:48:35;;;;;;;0.70;0.70;;;;;;;8.99;87.58;94580.66;6156121;23;20016;-75
2021/05/18 20:51:01;;;;;;;1.23;0.70;;;;;;;9.10;86.52;94574.31;6155440;23;20529;-74
2021/05/18 20:53:26;;;;;;;2.67;0.85;;;;;;;8.97;85.68;94574.88;6156471;23;20008;-77
2021/05/18 20:55:52;;;;;;;1.33;0.55;;;;;;;8.97;87.41;94575.69;6207275;23;20001;-74
2021/05/18 20:58:17;;;;;;;1.75;0.68;;;;;;;8.89;88.41;94575.72;6156123;23;20456;-74
2021/05/18 21:00:42;;;;;;;1.60;0.80;;;;;;;8.94;88.68;94577.81;6181218;23;20008;-73
2021/05/18 21:03:08;;;;;;;1.15;0.57;;;;;;;9.00;88.52;94571.97;6157750;23;20020;-74
2021/05/18 21:05:36;;;;;;;2.60;0.70;;;;;;;9.02;88.85;94578.56;6183129;23;20004;-74